Latest Weather Observations for Kingscote

IDS60801

Issued at 11:31 pm CDT Sunday 1 February 2015 (issued every 30 minutes, with the page automatically refreshed every 10 minutes)

About weather observations | Map of weather stations | Latest weather observations for SA | Other Formats
Station Details ID: 022841 Name: KINGSCOTE AERO Lat: -35.71 Lon: 137.52 Height: 6.23 m
Data from the previous 72 hours. | See also: Recent months at Kingscote
Date/Time
CDT
Temp
°C
App
Temp
°C
Dew
Point
Rel
Hum
%
Delta-T
°C
Wind Press
QNH
hPa
Press
MSL
hPa
Rain
since 9 am
mm
Dir
 
Spd
km/h
Gust
km/h
Spd
kts
Gust
kts
01/11:30pm 15.6 10.7 9.9 69 3.0 SSE 26 37 14 20 1021.9 1021.9 0.0
01/11:00pm 15.9 11.4 10.2 69 3.0 SSE 24 33 13 18 1021.9 1021.9 0.0
01/10:30pm 15.6 12.6 10.8 73 2.5 SSE 17 28 9 15 1021.9 1021.9 0.0
01/10:00pm 15.1 11.0 10.1 72 2.6 S 22 33 12 18 1021.7 1021.7 0.0
01/09:30pm 15.8 11.6 9.9 68 3.1 S 22 32 12 17 1021.4 1021.4 0.0
01/09:00pm 15.7 10.3 9.4 66 3.2 SSE 28 35 15 19 1021.4 1021.4 0.0
01/08:30pm 15.6 11.0 9.7 68 3.1 SSE 24 32 13 17 1021.1 1021.1 0.0
01/08:00pm 16.1 10.4 9.8 66 3.3 SSE 30 41 16 22 1020.9 1020.9 0.0
01/07:30pm 17.1 11.1 10.0 63 3.7 SSE 32 46 17 25 1020.6 1020.6 0.0
01/07:00pm 17.1 11.5 10.0 63 3.7 SSE 30 44 16 24 1020.3 1020.3 0.0
01/06:30pm 16.9 11.8 10.5 66 3.4 SSE 28 39 15 21 1020.3 1020.3 0.0
01/06:00pm 16.7 10.2 10.3 66 3.4 SSE 35 50 19 27 1020.2 1020.2 0.0
01/05:30pm 16.9 11.0 10.3 65 3.5 SSE 32 44 17 24 1020.0 1020.0 0.0
01/05:00pm 18.3 12.5 9.6 57 4.6 SSE 30 39 16 21 1019.8 1019.8 0.0
01/04:30pm 18.0 11.9 9.6 58 4.4 SSE 32 41 17 22 1019.8 1019.8 0.0
01/04:00pm 19.2 13.3 9.1 52 5.3 S 30 43 16 23 1019.6 1019.6 0.0
01/03:43pm 20.0 14.8 10.1 53 5.3 S 28 50 15 27 1019.6 1019.6 0.0
01/03:30pm 19.6 13.7 9.2 51 5.5 S 30 41 16 22 1019.5 1019.5 0.0
01/03:00pm 19.1 13.1 8.7 51 5.4 SSE 30 44 16 24 1019.7 1019.7 0.0
01/02:30pm 19.7 13.7 7.1 44 6.4 SSE 28 37 15 20 1019.7 1019.7 0.0
01/02:00pm 18.4 12.0 9.2 55 4.8 SSE 33 43 18 23 1019.8 1019.8 0.0
01/01:30pm 18.5 12.0 8.2 51 5.3 S 32 44 17 24 1019.9 1019.9 0.0
01/01:00pm 19.5 13.8 8.2 48 5.8 S 28 39 15 21 1020.1 1020.1 0.0
01/12:30pm 18.0 12.0 8.6 54 4.8 S 30 43 16 23 1020.4 1020.4 0.0
01/12:00pm 18.9 12.6 9.1 53 5.1 SSE 32 41 17 22 1020.4 1020.4 0.0
01/11:30am 18.3 11.9 9.4 56 4.7 SSE 33 43 18 23 1020.2 1020.2 0.0
01/11:00am 18.2 12.0 9.3 56 4.7 SSE 32 41 17 22 1020.1 1020.1 0.0
01/10:30am 17.5 12.6 10.1 62 3.9 SSE 26 35 14 19 1020.0 1020.0 0.0
01/10:00am 17.1 12.4 10.7 66 3.4 S 26 33 14 18 1020.0 1020.0 0.0
01/09:30am 16.3 11.5 10.4 68 3.1 SSE 26 35 14 19 1019.8 1019.8 0.0
01/09:00am 16.0 10.9 10.5 70 2.9 S 28 37 15 20 1019.6 1019.6 0.0
01/08:30am 15.6 11.4 11.2 75 2.3 S 24 33 13 18 1019.2 1019.2 0.0
01/08:00am 14.8 11.6 11.9 83 1.6 S 20 30 11 16 1018.8 1018.8 0.0
01/07:30am 14.1 9.5 12.3 89 1.0 SSE 28 41 15 22 1018.6 1018.6 0.0
01/07:00am 14.2 11.2 11.9 86 1.2 S 19 26 10 14 1018.2 1018.2 0.0
01/06:30am 13.7 10.1 11.9 89 1.0 S 22 30 12 16 1017.9 1017.9 0.0
01/06:00am 13.8 10.5 11.7 87 1.1 S 20 26 11 14 1017.9 1017.9 0.0
01/05:30am 14.9 10.0 11.3 79 1.9 SSE 28 39 15 21 1017.8 1017.8 0.0
01/05:00am 15.1 11.7 11.1 77 2.1 S 20 26 11 14 1017.7 1017.7 0.0
01/04:30am 15.0 10.1 11.4 79 1.9 S 28 39 15 21 1017.6 1017.6 0.0
01/04:00am 14.1 11.3 12.5 90 0.9 SSE 19 24 10 13 1017.7 1017.7 0.0
01/03:30am 14.4 10.7 12.6 89 1.0 S 24 35 13 19 1018.1 1018.1 0.0
01/03:00am 14.2 11.9 12.9 92 0.7 S 17 20 9 11 1018.0 1018.0 0.0
01/02:40am 14.0 11.2 12.7 92 0.7 S 19 24 10 13 1018.1 1018.1 0.0
01/02:30am 14.0 11.1 12.9 93 0.6 SSE 20 30 11 16 1018.1 1018.1 0.0
01/02:17am 14.3 10.2 12.7 90 0.9 SSE 26 37 14 20 1018.4 1018.4 0.0
01/02:00am 14.4 11.5 12.4 88 1.1 SSE 19 26 10 14 1018.4 1018.4 0.0
01/01:49am 14.8 10.0 12.8 88 1.1 SSE 30 39 16 21 1018.6 1018.6 0.0
01/01:30am 16.1 12.3 11.1 72 2.7 SSE 22 30 12 16 1018.6 1018.6 0.0
01/01:00am 16.0 10.8 10.3 69 3.0 SSE 28 39 15 21 1018.8 1018.8 0.0
01/12:30am 16.2 12.0 11.2 72 2.7 SSE 24 35 13 19 1018.9 1018.9 0.0
01/12:00am 16.2 12.5 11.4 73 2.6 SSE 22 30 12 16 1018.9 1018.9 0.0
 
Date/Time
CDT
Temp
°C
App
Temp
°C
Dew
Point
Rel
Hum
%
Delta-T
°C
Wind Press
QNH
hPa
Press
MSL
hPa
Rain
since 9 am
mm
Dir
 
Spd
km/h
Gust
km/h
Spd
kts
Gust
kts
31/11:30pm 16.0 12.6 11.2 73 2.6 SSE 20 32 11 17 1018.8 1018.8 0.0
31/11:03pm 14.7 10.8 12.0 84 1.5 SSE 24 33 13 18 1018.9 1018.9 0.0
31/11:00pm 14.5 10.7 12.4 87 1.1 SSE 24 33 13 18 1018.9 1018.9 0.0
31/10:47pm 14.7 8.9 12.7 88 1.1 SSE 35 54 19 29 1019.0 1019.0 0.0
31/10:46pm 14.7 8.5 12.7 88 1.1 SSE 37 54 20 29 1019.0 1019.0 0.0
31/10:37pm 16.2 11.1 12.0 76 2.3 SSE 30 52 16 28 1018.8 1018.8 0.0
31/10:30pm 16.4 11.1 11.3 72 2.7 SSE 30 43 16 23 1018.8 1018.8 0.0
31/10:00pm 16.6 11.1 10.7 68 3.1 SSE 30 41 16 22 1018.6 1018.6 0.0
31/09:30pm 16.6 11.5 10.7 68 3.1 SSE 28 37 15 20 1018.2 1018.2 0.0
31/09:00pm 16.5 12.0 11.4 72 2.7 SSE 26 35 14 19 1017.9 1017.9 0.0
31/08:30pm 16.5 11.1 11.0 70 2.9 SSE 30 48 16 26 1017.8 1017.8 0.0
31/08:26pm 16.5 11.1 11.0 70 2.9 SSE 30 48 16 26 1017.7 1017.7 0.0
31/08:00pm 16.4 9.7 9.6 64 3.5 SSE 35 48 19 26 1017.8 1017.8 0.0
31/07:30pm 17.4 11.4 10.1 62 3.9 SSE 32 48 17 26 1017.4 1017.4 0.0
31/07:00pm 18.0 12.1 10.4 61 4.1 SSE 32 43 17 23 1017.4 1017.4 0.0
31/06:30pm 18.6 13.4 10.4 59 4.4 SSE 28 39 15 21 1017.3 1017.3 0.0
31/06:00pm 18.4 12.3 10.5 60 4.2 SSE 33 43 18 23 1017.3 1017.3 0.0
31/05:30pm 18.5 12.6 10.6 60 4.2 SSE 32 41 17 22 1017.2 1017.2 0.0
31/05:00pm 18.5 13.3 11.6 64 3.8 SE 30 39 16 21 1017.3 1017.3 0.0
31/04:30pm 19.0 13.4 12.0 64 3.9 SE 33 48 18 26 1017.4 1017.4 0.0
31/04:00pm 18.8 14.1 11.9 64 3.8 SSE 28 37 15 20 1017.5 1017.5 0.0
31/03:30pm 20.8 15.5 11.4 55 5.2 SE 30 43 16 23 1017.4 1017.4 0.0
31/03:00pm 20.2 14.3 10.3 53 5.3 SE 32 41 17 22 1017.2 1017.2 0.0
31/02:30pm 20.6 14.2 9.5 49 5.9 SE 33 44 18 24 1017.5 1017.5 0.0
31/02:00pm 19.4 13.6 10.9 58 4.6 SSE 32 43 17 23 1017.2 1017.2 0.0
31/01:30pm 18.9 12.7 10.2 57 4.6 SE 33 41 18 22 1017.2 1017.2 0.0
31/01:00pm 19.6 14.4 11.6 60 4.4 SE 30 41 16 22 1017.4 1017.4 0.0
31/12:30pm 18.7 13.1 10.3 58 4.5 SE 30 39 16 21 1017.6 1017.6 0.0
31/12:00pm 20.1 15.1 10.8 55 5.1 SSE 28 43 15 23 1017.7 1017.7 0.0
31/11:30am 19.6 14.8 10.3 55 5.0 SE 26 35 14 19 1018.0 1018.0 0.0
31/11:00am 19.1 13.1 10.1 56 4.8 SSE 32 44 17 24 1018.1 1018.1 0.0
31/10:30am 19.3 13.5 9.5 53 5.2 SE 30 41 16 22 1017.9 1017.9 0.0
31/10:00am 18.7 13.2 10.5 59 4.4 ESE 30 43 16 23 1018.0 1018.0 0.0
31/09:30am 17.9 12.9 10.8 63 3.8 ESE 28 41 15 22 1017.9 1017.9 0.0
31/09:00am 16.9 14.4 12.2 74 2.6 SE 17 26 9 14 1018.0 1018.0 0.0
31/08:30am 17.4 12.2 10.1 62 3.9 SE 28 37 15 20 1017.6 1017.6 0.0
31/08:00am 17.3 13.1 8.4 56 4.6 SE 20 26 11 14 1017.4 1017.4 0.0
31/07:30am 17.1 12.2 8.5 57 4.4 ESE 24 33 13 18 1017.1 1017.1 0.0
31/07:00am 16.6 13.0 9.8 64 3.6 SE 19 26 10 14 1016.8 1016.8 0.0
31/06:30am 16.1 12.5 10.0 67 3.2 SE 19 26 10 14 1016.5 1016.5 0.0
31/06:00am 15.1 12.6 9.7 70 2.8 SE 13 15 7 8 1016.5 1016.5 0.0
31/05:30am 16.0 11.8 9.7 66 3.3 SE 22 30 12 16 1016.3 1016.3 0.0
31/05:00am 15.8 11.4 10.3 70 2.9 ESE 24 32 13 17 1015.9 1015.9 0.0
31/04:30am 15.2 11.1 10.2 72 2.6 SE 22 30 12 16 1015.8 1015.8 0.0
31/04:00am 15.3 10.8 9.9 70 2.8 SE 24 30 13 16 1015.6 1015.6 0.0
31/03:30am 15.5 11.1 10.3 71 2.7 SE 24 33 13 18 1015.6 1015.6 0.0
31/03:01am 15.7 10.4 10.0 69 3.0 SE 28 46 15 25 1015.5 1015.5 0.0
31/03:00am 15.7 10.9 10.2 70 2.9 SE 26 46 14 25 1015.5 1015.5 0.0
31/02:30am 15.3 10.9 10.3 72 2.6 SE 24 35 13 19 1015.8 1015.8 0.0
31/02:00am 15.7 11.8 10.7 72 2.7 SE 22 33 12 18 1016.3 1016.3 0.0
31/01:30am 15.6 11.6 10.4 71 2.7 SE 22 32 12 17 1016.5 1016.5 0.0
31/01:00am 15.7 11.2 10.2 70 2.9 SE 24 35 13 19 1016.5 1016.5 0.0
31/12:30am 15.8 10.9 10.1 69 3.0 SE 26 35 14 19 1016.6 1016.6 0.0
31/12:00am 15.8 10.9 9.9 68 3.1 SE 26 37 14 20 1016.7 1016.7 0.0
 
Date/Time
CDT
Temp
°C
App
Temp
°C
Dew
Point
Rel
Hum
%
Delta-T
°C
Wind Press
QNH
hPa
Press
MSL
hPa
Rain
since 9 am
mm
Dir
 
Spd
km/h
Gust
km/h
Spd
kts
Gust
kts
30/11:30pm 15.8 10.8 9.7 67 3.2 SE 26 35 14 19 1016.9 1016.9 0.0
30/11:00pm 15.7 10.7 9.4 66 3.3 SSE 26 37 14 20 1017.0 1017.0 0.0
30/10:30pm 16.1 11.1 9.5 65 3.4 SSE 26 39 14 21 1017.0 1017.0 0.0
30/10:00pm 16.2 11.5 9.2 63 3.6 SE 24 33 13 18 1017.1 1017.1 0.0
30/09:30pm 16.5 11.6 9.9 65 3.5 SE 26 37 14 20 1016.8 1016.8 0.0
30/09:00pm 16.3 11.0 9.7 65 3.4 SSE 28 41 15 22 1016.5 1016.5 0.0
30/08:30pm 16.6 11.3 9.8 64 3.6 SSE 28 39 15 21 1016.5 1016.5 0.0
30/08:00pm 17.1 10.4 9.8 62 3.8 SSE 35 46 19 25 1016.4 1016.4 0.0
30/07:46pm 17.7 11.8 10.3 62 3.9 SSE 32 50 17 27 1016.4 1016.4 0.0
30/07:30pm 17.8 11.5 9.7 59 4.3 SSE 33 44 18 24 1016.2 1016.2 0.0
30/07:00pm 18.5 11.8 9.8 57 4.6 SSE 35 44 19 24 1016.0 1016.0 0.0
30/06:30pm 19.1 13.0 9.6 54 5.0 SSE 32 44 17 24 1015.9 1015.9 0.0
30/06:00pm 19.7 13.6 9.9 53 5.2 SSE 32 41 17 22 1015.9 1015.9 0.0
30/05:30pm 20.1 14.0 9.9 52 5.5 SE 32 46 17 25 1016.1 1016.1 0.0
30/05:00pm 19.7 13.6 9.9 53 5.2 SSE 32 48 17 26 1016.3 1016.3 0.0
30/04:30pm 20.6 13.9 9.8 50 5.8 SE 35 44 19 24 1016.5 1016.5 0.0
30/04:00pm 20.9 14.7 9.5 48 6.1 SE 32 43 17 23 1016.7 1016.7 0.0
30/03:30pm 22.2 16.1 10.4 47 6.4 SE 33 46 18 25 1016.7 1016.7 0.0
30/03:00pm 21.1 14.1 8.4 44 6.6 SSE 35 44 19 24 1016.7 1016.7 0.0
30/02:30pm 21.6 15.4 9.5 46 6.5 SE 32 43 17 23 1017.1 1017.1 0.0
30/02:00pm 20.9 14.8 8.2 44 6.6 SSE 30 39 16 21 1017.5 1017.5 0.0
30/01:30pm 21.7 16.3 10.8 50 6.0 SE 30 41 16 22 1017.5 1017.5 0.0
30/01:00pm 22.5 17.7 11.6 50 6.1 SE 28 35 15 19 1017.8 1017.8 0.0
30/12:30pm 21.4 15.7 11.1 52 5.7 SE 32 41 17 22 1017.8 1017.8 0.0
30/12:00pm 21.0 16.1 11.3 54 5.3 SE 28 41 15 22 1018.0 1018.0 0.0
30/11:43am 21.5 16.7 11.8 54 5.4 SE 28 48 15 26 1018.2 1018.2 0.0
30/11:30am 21.0 16.1 11.3 54 5.3 SE 28 39 15 21 1018.4 1018.4 0.0
30/11:00am 20.3 15.5 11.5 57 4.9 SE 28 37 15 20 1018.2 1018.2 0.0
30/10:30am 19.8 15.0 11.6 59 4.5 SE 28 39 15 21 1018.5 1018.5 0.0
30/10:00am 18.3 13.5 11.8 66 3.6 SE 28 35 15 19 1018.5 1018.5 0.0
30/09:30am 18.2 12.7 12.0 67 3.4 SE 32 41 17 22 1018.5 1018.5 0.0
30/09:00am 18.1 12.8 12.5 70 3.1 ESE 32 41 17 22 1018.4 1018.4 0.0
30/08:30am 17.4 12.5 12.5 73 2.7 SE 30 37 16 20 1018.2 1018.2 0.0
30/08:00am 17.2 13.2 12.9 76 2.4 SE 26 35 14 19 1018.1 1018.1 0.0
30/07:30am 16.5 14.2 13.0 80 1.9 SE 17 22 9 12 1017.8 1017.8 0.0
30/07:00am 15.2 13.3 12.9 86 1.3 SE 15 24 8 13 1017.6 1017.6 0.0
30/06:30am 14.5 12.3 12.2 86 1.2 SE 15 20 8 11 1017.5 1017.5 0.0
30/06:00am 14.7 12.5 12.2 85 1.4 SE 15 20 8 11 1017.2 1017.2 0.0
30/05:30am 14.7 12.5 12.2 85 1.4 SE 15 20 8 11 1016.9 1016.9 0.0
30/05:00am 14.7 12.9 12.0 84 1.5 SE 13 15 7 8 1016.7 1016.7 0.0
30/04:30am 14.8 12.7 12.3 85 1.4 SSE 15 20 8 11 1016.7 1016.7 0.0
30/04:00am 15.1 13.4 12.4 84 1.5 SSE 13 17 7 9 1016.8 1016.8 0.0
30/03:30am 15.3 13.5 12.2 82 1.7 SSE 13 20 7 11 1016.9 1016.9 0.0
30/03:00am 15.5 13.8 12.3 81 1.7 SSE 13 19 7 10 1017.0 1017.0 0.0
30/02:30am 15.9 13.4 12.3 79 2.0 SSE 17 20 9 11 1016.9 1016.9 0.0
30/02:00am 16.3 13.9 12.5 78 2.1 SSE 17 24 9 13 1017.1 1017.1 0.0
30/01:30am 16.2 14.2 12.6 79 2.0 SSE 15 22 8 12 1017.3 1017.3 0.0
30/01:00am 16.4 14.0 12.8 79 2.0 SSE 17 22 9 12 1017.4 1017.4 0.0
30/12:30am 16.3 14.8 13.2 82 1.7 SSE 13 20 7 11 1017.4 1017.4 0.0
30/12:00am 16.2 14.7 13.1 82 1.7 SSE 13 20 7 11 1017.6 1017.6 0.0

Other Formats:

Comma delimited format used in spreadsheet applications
http://www.bom.gov.au/fwo/IDS60801/IDS60801.95807.axf

JavaScript Object Notation format (JSON) in row-major order
http://www.bom.gov.au/fwo/IDS60801/IDS60801.95807.json